Time,TemperatureF,DewpointF,PressureIn,WindDirection,WindDirectionDegrees,WindSpeedMPH,WindSpeedGustMPH,Humidity,HourlyPrecipIn,Conditions,Clouds,dailyrainin,SoftwareType,DateUTC
2013-02-11 00:00:00,30.4,23.4,30.39,SSW,203,1.0,3.0,75,0.00,,,0.09,meteohub,2013-02-11 05:00:00,
2013-02-11 00:05:00,30.4,23.4,30.39,SW,218,1.0,3.0,75,0.00,,,0.00,meteohub,2013-02-11 05:05:00,
2013-02-11 00:10:00,30.4,23.4,30.39,SSW,197,0.0,2.0,75,0.00,,,0.00,meteohub,2013-02-11 05:10:00,
2013-02-11 00:15:00,30.4,23.4,30.39,SSW,197,1.0,2.0,75,0.00,,,0.00,meteohub,2013-02-11 05:15:00,
2013-02-11 00:20:00,30.4,23.4,30.38,SSE,163,0.0,2.0,75,0.00,,,0.00,meteohub,2013-02-11 05:20:00,
2013-02-11 00:25:00,30.4,23.4,30.38,ESE,119,0.0,2.0,75,0.00,,,0.00,meteohub,2013-02-11 05:25:00,
2013-02-11 00:30:00,30.4,23.7,30.37,SE,146,0.0,2.0,76,0.00,,,0.00,meteohub,2013-02-11 05:30:00,
2013-02-11 00:35:00,30.4,23.7,30.37,SE,124,0.0,2.0,76,0.00,,,0.00,meteohub,2013-02-11 05:35:00,
2013-02-11 00:40:00,30.2,23.5,30.37,SE,124,0.0,2.0,76,0.00,,,0.00,meteohub,2013-02-11 05:40:00,
2013-02-11 00:45:00,30.2,23.5,30.36,East,99,0.0,2.0,76,0.00,,,0.00,meteohub,2013-02-11 05:45:00,
2013-02-11 00:50:00,30.2,23.5,30.36,SSE,160,0.0,2.0,76,0.00,,,0.00,meteohub,2013-02-11 05:50:00,
2013-02-11 00:55:00,30.2,23.5,30.36,SSE,161,0.0,2.0,76,0.00,,,0.00,meteohub,2013-02-11 05:55:00,
2013-02-11 01:00:00,30.2,23.5,30.35,SSE,160,0.0,1.0,76,0.00,,,0.00,meteohub,2013-02-11 06:00:00,
2013-02-11 01:05:00,30.2,23.5,30.35,South,191,0.0,0.0,76,0.00,,,0.00,meteohub,2013-02-11 06:05:00,
2013-02-11 01:10:00,30.2,23.9,30.35,South,191,0.0,1.0,77,0.00,,,0.00,meteohub,2013-02-11 06:10:00,
2013-02-11 01:15:00,30.2,23.9,30.35,SSW,194,0.0,1.0,77,0.00,,,0.00,meteohub,2013-02-11 06:15:00,
2013-02-11 01:20:00,30.4,24.1,30.35,SSW,194,0.0,1.0,77,0.00,,,0.00,meteohub,2013-02-11 06:20:00,
2013-02-11 01:25:00,30.4,24.1,30.35,SW,233,0.0,2.0,77,0.00,,,0.00,meteohub,2013-02-11 06:25:00,
2013-02-11 01:30:00,30.4,24.1,30.35,SW,215,0.0,2.0,77,0.00,,,0.00,meteohub,2013-02-11 06:30:00,
2013-02-11 01:35:00,30.4,24.1,30.35,SW,215,0.0,2.0,77,0.00,,,0.00,meteohub,2013-02-11 06:35:00,
2013-02-11 01:40:00,30.4,24.1,30.35,SW,215,0.0,1.0,77,0.00,,,0.00,meteohub,2013-02-11 06:40:00,
2013-02-11 01:45:00,30.4,24.3,30.35,South,173,0.0,1.0,78,0.00,,,0.00,meteohub,2013-02-11 06:45:00,
2013-02-11 01:50:00,30.4,24.3,30.34,South,173,0.0,0.0,78,0.00,,,0.00,meteohub,2013-02-11 06:50:00,
2013-02-11 01:55:00,30.4,24.3,30.34,South,173,0.0,0.0,78,0.00,,,0.00,meteohub,2013-02-11 06:55:00,
2013-02-11 02:01:00,30.4,24.6,30.33,SSE,159,0.0,1.0,79,0.00,,,0.00,meteohub,2013-02-11 07:01:00,
2013-02-11 02:06:00,30.4,24.6,30.33,SSE,159,0.0,1.0,79,0.00,,,0.00,meteohub,2013-02-11 07:06:00,
2013-02-11 02:11:00,30.4,24.6,30.33,SSE,159,0.0,1.0,79,0.00,,,0.00,meteohub,2013-02-11 07:11:00,
2013-02-11 02:16:00,30.4,24.6,30.32,SSE,159,0.0,0.0,79,0.00,,,0.00,meteohub,2013-02-11 07:16:00,
2013-02-11 02:21:00,30.4,25.0,30.32,SSE,159,0.0,0.0,80,0.00,,,0.00,meteohub,2013-02-11 07:21:00,
2013-02-11 02:26:00,30.4,25.0,30.32,SSE,159,0.0,0.0,80,0.00,,,0.00,meteohub,2013-02-11 07:26:00,
2013-02-11 02:31:00,30.4,25.0,30.32,SSE,159,0.0,0.0,80,0.00,,,0.00,meteohub,2013-02-11 07:31:00,
2013-02-11 02:36:00,30.4,25.3,30.32,SSE,159,0.0,0.0,81,0.00,,,0.00,meteohub,2013-02-11 07:36:00,
2013-02-11 02:41:00,30.4,25.3,30.32,SSE,159,0.0,0.0,81,0.00,,,0.00,meteohub,2013-02-11 07:41:00,
2013-02-11 02:46:00,30.4,25.3,30.32,SSE,159,0.0,0.0,81,0.00,,,0.00,meteohub,2013-02-11 07:46:00,
2013-02-11 02:51:00,30.4,25.3,30.31,SSE,159,0.0,0.0,81,0.00,,,0.00,meteohub,2013-02-11 07:51:00,
2013-02-11 02:56:00,30.4,25.3,30.30,SSE,159,0.0,0.0,81,0.00,,,0.00,meteohub,2013-02-11 07:56:00,
2013-02-11 03:01:00,30.4,25.3,30.30,SSE,159,0.0,0.0,81,0.00,,,0.00,meteohub,2013-02-11 08:01:00,
2013-02-11 03:06:00,30.6,25.7,30.29,SSE,159,0.0,0.0,82,0.00,,,0.00,meteohub,2013-02-11 08:06:00,
2013-02-11 03:11:00,30.6,25.3,30.29,SSE,159,0.0,0.0,81,0.00,,,0.00,meteohub,2013-02-11 08:11:00,
2013-02-11 03:16:00,30.7,25.9,30.29,SSE,159,0.0,0.0,82,0.00,,,0.00,meteohub,2013-02-11 08:16:00,
2013-02-11 03:21:00,30.9,26.1,30.29,SSE,160,0.0,0.0,82,0.00,,,0.00,meteohub,2013-02-11 08:21:00,
2013-02-11 03:26:00,30.9,26.1,30.29,SSE,160,0.0,0.0,82,0.00,,,0.00,meteohub,2013-02-11 08:26:00,
2013-02-11 03:31:00,30.9,26.1,30.28,SSE,160,0.0,0.0,82,0.00,,,0.00,meteohub,2013-02-11 08:31:00,
2013-02-11 03:36:00,30.9,26.1,30.28,SSE,159,0.0,1.0,82,0.00,,,0.00,meteohub,2013-02-11 08:36:00,
2013-02-11 03:41:00,30.9,26.4,30.27,SSE,159,0.0,1.0,83,0.00,,,0.00,meteohub,2013-02-11 08:41:00,
2013-02-11 03:46:00,31.1,26.6,30.27,SSE,160,0.0,1.0,83,0.00,,,0.00,meteohub,2013-02-11 08:46:00,
2013-02-11 03:51:00,31.1,26.6,30.27,SSE,159,0.0,0.0,83,0.00,,,0.00,meteohub,2013-02-11 08:51:00,
2013-02-11 03:56:00,31.1,26.6,30.26,SSE,159,0.0,0.0,83,0.00,,,0.00,meteohub,2013-02-11 08:56:00,
2013-02-11 04:01:00,31.1,26.6,30.25,SSE,159,0.0,0.0,83,0.00,,,0.00,meteohub,2013-02-11 09:01:00,
2013-02-11 04:06:00,31.3,26.8,30.25,SSE,159,0.0,0.0,83,0.00,,,0.00,meteohub,2013-02-11 09:06:00,
2013-02-11 04:11:00,31.5,27.0,30.25,SSE,160,0.0,0.0,83,0.00,,,0.00,meteohub,2013-02-11 09:11:00,
2013-02-11 04:16:00,31.5,27.0,30.25,SSE,159,0.0,0.0,83,0.00,,,0.00,meteohub,2013-02-11 09:16:00,
2013-02-11 04:21:00,31.6,27.1,30.25,SSE,159,1.0,0.0,83,0.00,,,0.00,meteohub,2013-02-11 09:21:00,
2013-02-11 04:26:00,31.6,27.1,30.25,SSE,159,0.0,1.0,83,0.00,,,0.00,meteohub,2013-02-11 09:26:00,
2013-02-11 04:31:00,31.8,27.3,30.25,SSE,159,0.0,1.0,83,0.00,,,0.00,meteohub,2013-02-11 09:31:00,
2013-02-11 04:36:00,32.0,27.5,30.24,East,101,1.0,1.0,83,0.00,,,0.00,meteohub,2013-02-11 09:36:00,
2013-02-11 04:41:00,32.2,27.9,30.24,East,100,0.0,1.0,84,0.00,,,0.00,meteohub,2013-02-11 09:41:00,
2013-02-11 04:46:00,32.2,27.9,30.23,ESE,102,0.0,1.0,84,0.00,,,0.00,meteohub,2013-02-11 09:46:00,
2013-02-11 04:51:00,32.4,28.0,30.22,East,100,1.0,1.0,84,0.00,,,0.00,meteohub,2013-02-11 09:51:00,
2013-02-11 04:56:00,32.4,28.0,30.22,East,101,0.0,1.0,84,0.00,,,0.00,meteohub,2013-02-11 09:56:00,
2013-02-11 05:01:00,32.4,28.4,30.22,East,100,0.0,1.0,85,0.00,,,0.00,meteohub,2013-02-11 10:01:00,
2013-02-11 05:06:00,32.5,28.8,30.22,East,101,0.0,1.0,86,0.00,,,0.00,meteohub,2013-02-11 10:06:00,
2013-02-11 05:11:00,32.5,28.8,30.22,East,100,1.0,1.0,86,0.00,,,0.00,meteohub,2013-02-11 10:11:00,
2013-02-11 05:16:00,32.4,28.6,30.21,East,79,0.0,1.0,86,0.00,,,0.00,meteohub,2013-02-11 10:16:00,
2013-02-11 05:21:00,32.4,28.6,30.21,East,79,1.0,1.0,86,0.00,,,0.00,meteohub,2013-02-11 10:21:00,
2013-02-11 05:27:00,32.5,29.1,30.21,East,79,0.0,1.0,87,0.00,,,0.00,meteohub,2013-02-11 10:27:00,
2013-02-11 05:31:00,32.5,29.1,30.20,East,79,1.0,1.0,87,0.00,,,0.00,meteohub,2013-02-11 10:31:00,
2013-02-11 05:36:00,32.4,28.9,30.21,ENE,76,0.0,2.0,87,0.00,,,0.00,meteohub,2013-02-11 10:36:00,
2013-02-11 05:42:00,32.5,29.3,30.20,ENE,77,0.0,2.0,88,0.00,,,0.00,meteohub,2013-02-11 10:42:00,
2013-02-11 05:47:00,32.5,29.3,30.21,ENE,77,0.0,2.0,88,0.00,,,0.00,meteohub,2013-02-11 10:47:00,
2013-02-11 05:52:00,32.5,29.3,30.20,ENE,77,0.0,1.0,88,0.00,,,0.00,meteohub,2013-02-11 10:52:00,
2013-02-11 05:57:00,32.5,29.7,30.20,ENE,77,0.0,1.0,89,0.00,,,0.00,meteohub,2013-02-11 10:57:00,
2013-02-11 06:02:00,32.5,30.0,30.19,ENE,77,0.0,1.0,90,0.00,,,0.00,meteohub,2013-02-11 11:02:00,
2013-02-11 06:07:00,32.7,30.2,30.19,ENE,76,1.0,1.0,90,0.00,,,0.00,meteohub,2013-02-11 11:07:00,
2013-02-11 06:12:00,32.7,30.4,30.18,ENE,75,1.0,1.0,91,0.00,,,0.00,meteohub,2013-02-11 11:12:00,
2013-02-11 06:17:00,32.9,30.9,30.17,NNW,336,1.0,1.0,92,0.00,,,0.00,meteohub,2013-02-11 11:17:00,
2013-02-11 06:22:00,32.9,30.9,30.17,NE,35,0.0,2.0,92,0.00,,,0.00,meteohub,2013-02-11 11:22:00,
2013-02-11 06:27:00,32.9,30.9,30.17,NE,53,2.0,2.0,92,0.00,,,0.00,meteohub,2013-02-11 11:27:00,
2013-02-11 06:32:00,32.9,31.1,30.16,ENE,60,0.0,2.0,93,0.00,,,0.00,meteohub,2013-02-11 11:32:00,
2013-02-11 06:37:00,33.1,31.3,30.16,ENE,60,0.0,2.0,93,0.00,,,0.00,meteohub,2013-02-11 11:37:00,
2013-02-11 06:42:00,33.1,31.3,30.16,WNW,290,0.0,2.0,93,0.00,,,0.00,meteohub,2013-02-11 11:42:00,
2013-02-11 06:47:00,33.1,31.5,30.14,East,85,1.0,2.0,94,0.00,,,0.00,meteohub,2013-02-11 11:47:00,
2013-02-11 06:52:00,33.1,31.5,30.13,ENE,78,3.0,3.0,94,0.00,,,0.00,meteohub,2013-02-11 11:52:00,
2013-02-11 06:57:00,33.3,31.6,30.13,ENE,77,1.0,4.0,94,0.00,,,0.00,meteohub,2013-02-11 11:57:00,
2013-02-11 07:02:00,33.3,31.6,30.12,ENE,77,0.0,4.0,94,0.00,,,0.00,meteohub,2013-02-11 12:02:00,
2013-02-11 07:07:00,33.3,32.0,30.13,ENE,75,1.0,4.0,95,0.00,,,0.00,meteohub,2013-02-11 12:07:00,
2013-02-11 07:12:00,33.4,32.2,30.12,NE,53,2.0,2.0,95,0.00,,,0.00,meteohub,2013-02-11 12:12:00,
2013-02-11 07:17:00,33.6,32.4,30.11,ENE,78,1.0,2.0,95,0.00,,,0.00,meteohub,2013-02-11 12:17:00,
2013-02-11 07:22:00,33.6,32.4,30.10,ENE,75,1.0,2.0,95,0.00,,,0.00,meteohub,2013-02-11 12:22:00,
2013-02-11 07:27:00,33.6,32.4,30.10,ENE,76,2.0,2.0,95,0.00,,,0.00,meteohub,2013-02-11 12:27:00,
2013-02-11 07:32:00,33.6,32.4,30.10,ENE,77,0.0,3.0,95,0.00,,,0.00,meteohub,2013-02-11 12:32:00,
2013-02-11 07:37:00,33.8,32.5,30.10,East,81,0.0,4.0,95,0.00,,,0.00,meteohub,2013-02-11 12:37:00,
2013-02-11 07:42:00,34.0,32.9,30.10,NE,49,1.0,4.0,96,0.00,,,0.00,meteohub,2013-02-11 12:42:00,
2013-02-11 07:47:00,34.2,33.1,30.10,NE,49,0.0,4.0,96,0.00,,,0.00,meteohub,2013-02-11 12:47:00,
2013-02-11 07:52:00,34.3,33.3,30.09,NE,46,1.0,2.0,96,0.00,,,0.00,meteohub,2013-02-11 12:52:00,
2013-02-11 07:57:00,34.3,33.3,30.09,NNE,15,0.0,2.0,96,0.00,,,0.00,meteohub,2013-02-11 12:57:00,
2013-02-11 08:02:00,34.5,33.4,30.08,NNE,15,0.0,2.0,96,0.00,,,0.00,meteohub,2013-02-11 13:02:00,
2013-02-11 08:07:00,34.5,33.4,30.08,NNE,16,0.0,1.0,96,0.00,,,0.00,meteohub,2013-02-11 13:07:00,
2013-02-11 08:12:00,34.5,33.4,30.07,NNE,25,1.0,1.0,96,0.00,,,0.00,meteohub,2013-02-11 13:12:00,
2013-02-11 08:17:00,34.7,33.6,30.07,NNE,32,0.0,1.0,96,0.00,,,0.00,meteohub,2013-02-11 13:17:00,
2013-02-11 08:22:00,34.5,33.4,30.07,NNE,19,0.0,1.0,96,0.00,,,0.00,meteohub,2013-02-11 13:22:00,
2013-02-11 08:27:00,34.7,33.6,30.07,ENE,68,0.0,1.0,96,0.00,,,0.00,meteohub,2013-02-11 13:27:00,
2013-02-11 08:32:00,34.9,33.8,30.08,NW,309,0.0,1.0,96,0.00,,,0.00,meteohub,2013-02-11 13:32:00,
2013-02-11 08:37:00,34.9,33.8,30.07,WNW,292,1.0,2.0,96,0.00,,,0.00,meteohub,2013-02-11 13:37:00,
2013-02-11 08:42:00,35.1,34.0,30.07,ESE,103,0.0,2.0,96,0.00,,,0.00,meteohub,2013-02-11 13:42:00,
2013-02-11 08:47:00,35.2,34.5,30.07,ENE,74,0.0,2.0,97,0.00,,,0.00,meteohub,2013-02-11 13:47:00,
2013-02-11 08:52:00,35.4,34.7,30.06,ENE,74,0.0,2.0,97,0.00,,,0.00,meteohub,2013-02-11 13:52:00,
2013-02-11 08:57:00,35.6,34.9,30.06,North,4,0.0,2.0,97,0.00,,,0.00,meteohub,2013-02-11 13:57:00,
2013-02-11 09:02:00,35.8,35.1,30.06,NE,53,0.0,1.0,97,0.00,,,0.00,meteohub,2013-02-11 14:02:00,
2013-02-11 09:07:00,35.8,35.1,30.06,NE,51,0.0,1.0,97,0.00,,,0.00,meteohub,2013-02-11 14:07:00,
2013-02-11 09:12:00,36.0,35.2,30.06,NE,51,0.0,1.0,97,0.00,,,0.00,meteohub,2013-02-11 14:12:00,
2013-02-11 09:17:00,36.1,35.4,30.06,NE,51,0.0,1.0,97,0.00,,,0.00,meteohub,2013-02-11 14:17:00,
2013-02-11 09:22:00,36.1,35.4,30.05,NE,51,0.0,1.0,97,0.00,,,0.00,meteohub,2013-02-11 14:22:00,
2013-02-11 09:27:00,36.3,35.6,30.04,NE,53,0.0,1.0,97,0.00,,,0.00,meteohub,2013-02-11 14:27:00,
2013-02-11 09:32:00,36.3,35.6,30.04,NE,53,0.0,1.0,97,0.00,,,0.00,meteohub,2013-02-11 14:32:00,
2013-02-11 09:37:00,36.5,35.8,30.04,NE,53,0.0,1.0,97,0.00,,,0.00,meteohub,2013-02-11 14:37:00,
2013-02-11 09:42:00,36.7,36.0,30.04,NE,51,0.0,1.0,97,0.00,,,0.00,meteohub,2013-02-11 14:42:00,
2013-02-11 09:47:00,36.9,36.1,30.04,NE,51,0.0,1.0,97,0.00,,,0.00,meteohub,2013-02-11 14:47:00,
2013-02-11 09:52:00,36.9,36.1,30.04,NE,51,0.0,1.0,97,0.00,,,0.00,meteohub,2013-02-11 14:52:00,
2013-02-11 09:57:00,36.9,36.1,30.02,East,79,1.0,1.0,97,0.00,,,0.00,meteohub,2013-02-11 14:57:00,
2013-02-11 10:02:00,36.9,36.1,30.02,West,274,0.0,1.0,97,0.00,,,0.00,meteohub,2013-02-11 15:02:00,
2013-02-11 10:07:00,37.0,36.3,30.02,West,274,0.0,1.0,97,0.00,,,0.00,meteohub,2013-02-11 15:07:00,
2013-02-11 10:12:00,37.2,36.5,30.01,West,274,0.0,1.0,97,0.00,,,0.00,meteohub,2013-02-11 15:12:00,
2013-02-11 10:17:00,37.2,36.5,30.02,West,274,0.0,1.0,97,0.00,,,0.00,meteohub,2013-02-11 15:17:00,
2013-02-11 10:22:00,37.4,36.7,30.02,West,274,0.0,1.0,97,0.00,,,0.00,meteohub,2013-02-11 15:22:00,
2013-02-11 10:27:00,37.6,36.9,30.02,West,275,0.0,1.0,97,0.00,,,0.00,meteohub,2013-02-11 15:27:00,
2013-02-11 10:32:00,37.8,37.0,30.02,West,277,0.0,1.0,97,0.00,,,0.00,meteohub,2013-02-11 15:32:00,
2013-02-11 10:37:00,37.9,37.2,30.02,West,277,0.0,0.0,97,0.00,,,0.00,meteohub,2013-02-11 15:37:00,
2013-02-11 10:42:00,38.1,37.4,30.02,West,273,0.0,1.0,97,0.00,,,0.00,meteohub,2013-02-11 15:42:00,
2013-02-11 10:47:00,38.1,37.4,30.01,West,272,0.0,1.0,97,0.01,,,0.01,meteohub,2013-02-11 15:47:00,
2013-02-11 10:52:00,38.3,37.6,30.01,West,272,0.0,1.0,97,0.01,,,0.01,meteohub,2013-02-11 15:52:00,
2013-02-11 10:57:00,38.5,37.8,30.01,West,272,0.0,1.0,97,0.01,,,0.01,meteohub,2013-02-11 15:57:00,
2013-02-11 11:02:00,38.5,37.8,30.01,West,273,0.0,1.0,97,0.01,,,0.01,meteohub,2013-02-11 16:02:00,
2013-02-11 11:07:00,38.5,37.8,30.00,West,273,0.0,1.0,97,0.02,,,0.02,meteohub,2013-02-11 16:07:00,
2013-02-11 11:12:00,38.5,37.8,30.00,West,273,0.0,1.0,97,0.02,,,0.02,meteohub,2013-02-11 16:12:00,
2013-02-11 11:17:00,38.5,37.8,29.99,West,273,0.0,1.0,97,0.02,,,0.02,meteohub,2013-02-11 16:17:00,
2013-02-11 11:22:00,38.5,37.8,29.99,West,272,0.0,1.0,97,0.02,,,0.02,meteohub,2013-02-11 16:22:00,
2013-02-11 11:27:00,38.5,37.8,29.99,West,273,0.0,1.0,97,0.03,,,0.03,meteohub,2013-02-11 16:27:00,
2013-02-11 11:32:00,38.7,37.9,29.98,West,273,0.0,1.0,97,0.03,,,0.03,meteohub,2013-02-11 16:32:00,
2013-02-11 11:37:00,38.7,37.9,29.98,West,272,0.0,1.0,97,0.04,,,0.04,meteohub,2013-02-11 16:37:00,
2013-02-11 11:42:00,38.7,37.9,29.98,ENE,75,0.0,1.0,97,0.04,,,0.04,meteohub,2013-02-11 16:42:00,
2013-02-11 11:47:00,38.7,37.9,29.98,North,8,0.0,1.0,97,0.03,,,0.04,meteohub,2013-02-11 16:47:00,
2013-02-11 11:52:00,38.8,38.1,29.97,North,9,0.0,1.0,97,0.03,,,0.04,meteohub,2013-02-11 16:52:00,
2013-02-11 11:57:00,38.8,38.1,29.96,North,8,0.0,1.0,97,0.03,,,0.04,meteohub,2013-02-11 16:57:00,
2013-02-11 12:02:00,38.8,38.1,29.96,NNE,18,0.0,1.0,97,0.04,,,0.05,meteohub,2013-02-11 17:02:00,
2013-02-11 12:07:00,38.8,38.1,29.96,NNE,18,0.0,1.0,97,0.03,,,0.05,meteohub,2013-02-11 17:07:00,
2013-02-11 12:12:00,39.0,38.3,29.95,NNE,18,0.0,1.0,97,0.03,,,0.05,meteohub,2013-02-11 17:12:00,
2013-02-11 12:17:00,39.0,38.3,29.94,NNE,18,0.0,1.0,97,0.03,,,0.05,meteohub,2013-02-11 17:17:00,
2013-02-11 12:22:00,39.2,38.5,29.94,NNE,19,0.0,1.0,97,0.03,,,0.06,meteohub,2013-02-11 17:22:00,
2013-02-11 12:27:00,39.4,38.7,29.94,NNE,18,0.0,1.0,97,0.03,,,0.06,meteohub,2013-02-11 17:27:00,
2013-02-11 12:32:00,39.4,38.7,29.94,NE,44,0.0,1.0,97,0.03,,,0.06,meteohub,2013-02-11 17:32:00,
2013-02-11 12:37:00,39.6,38.8,29.93,NE,43,0.0,1.0,97,0.02,,,0.06,meteohub,2013-02-11 17:37:00,
2013-02-11 12:42:00,39.6,38.8,29.92,NE,43,0.0,1.0,97,0.02,,,0.06,meteohub,2013-02-11 17:42:00,
2013-02-11 12:47:00,39.7,39.0,29.91,NE,42,0.0,1.0,97,0.03,,,0.07,meteohub,2013-02-11 17:47:00,
2013-02-11 12:52:00,39.9,39.4,29.91,NE,42,0.0,0.0,98,0.03,,,0.07,meteohub,2013-02-11 17:52:00,
2013-02-11 12:57:00,39.9,39.2,29.91,NE,42,0.0,0.0,97,0.03,,,0.07,meteohub,2013-02-11 17:57:00,
2013-02-11 13:02:00,40.3,39.7,29.90,NE,42,0.0,0.0,98,0.02,,,0.07,meteohub,2013-02-11 18:02:00,
2013-02-11 13:07:00,40.6,40.1,29.89,NE,43,0.0,0.0,98,0.03,,,0.08,meteohub,2013-02-11 18:07:00,
2013-02-11 13:12:00,40.6,40.1,29.89,NW,307,0.0,0.0,98,0.03,,,0.08,meteohub,2013-02-11 18:12:00,
2013-02-11 13:17:00,40.6,39.9,29.88,NW,307,0.0,0.0,97,0.03,,,0.08,meteohub,2013-02-11 18:17:00,
2013-02-11 13:22:00,40.6,39.9,29.88,NW,307,0.0,0.0,97,0.02,,,0.08,meteohub,2013-02-11 18:22:00,
2013-02-11 13:27:00,40.8,40.1,29.88,SSW,201,0.0,0.0,97,0.02,,,0.08,meteohub,2013-02-11 18:27:00,
2013-02-11 13:32:00,40.8,40.1,29.87,West,263,0.0,1.0,97,0.03,,,0.09,meteohub,2013-02-11 18:32:00,
2013-02-11 13:37:00,40.8,40.1,29.87,WNW,283,1.0,1.0,97,0.03,,,0.09,meteohub,2013-02-11 18:37:00,
2013-02-11 13:42:00,40.8,40.1,29.87,WNW,300,2.0,2.0,97,0.03,,,0.09,meteohub,2013-02-11 18:42:00,
2013-02-11 13:47:00,40.8,40.1,29.87,WNW,290,0.0,3.0,97,0.03,,,0.09,meteohub,2013-02-11 18:47:00,
2013-02-11 13:52:00,40.8,40.1,29.86,SW,215,2.0,3.0,97,0.03,,,0.10,meteohub,2013-02-11 18:52:00,
2013-02-11 13:57:00,40.8,40.1,29.86,WNW,283,0.0,3.0,97,0.03,,,0.10,meteohub,2013-02-11 18:57:00,
2013-02-11 14:02:00,40.8,40.1,29.86,West,278,2.0,2.0,97,0.03,,,0.10,meteohub,2013-02-11 19:02:00,
2013-02-11 14:07:00,40.8,40.1,29.87,West,267,1.0,2.0,97,0.02,,,0.10,meteohub,2013-02-11 19:07:00,
2013-02-11 14:12:00,40.8,40.1,29.86,West,271,0.0,4.0,97,0.03,,,0.11,meteohub,2013-02-11 19:12:00,
2013-02-11 14:17:00,41.0,40.3,29.86,West,274,0.0,4.0,97,0.03,,,0.11,meteohub,2013-02-11 19:17:00,
2013-02-11 14:22:00,41.2,40.6,29.85,SSE,167,0.0,4.0,98,0.03,,,0.11,meteohub,2013-02-11 19:22:00,
2013-02-11 14:27:00,41.2,40.5,29.85,SSW,201,0.0,3.0,97,0.03,,,0.11,meteohub,2013-02-11 19:27:00,
2013-02-11 14:32:00,41.2,40.5,29.85,West,260,0.0,3.0,97,0.03,,,0.12,meteohub,2013-02-11 19:32:00,
2013-02-11 14:37:00,41.2,40.5,29.85,West,280,2.0,3.0,97,0.03,,,0.12,meteohub,2013-02-11 19:37:00,
2013-02-11 14:42:00,41.2,40.5,29.85,West,281,0.0,3.0,97,0.03,,,0.12,meteohub,2013-02-11 19:42:00,
2013-02-11 14:47:00,41.2,40.5,29.84,West,281,0.0,3.0,97,0.02,,,0.12,meteohub,2013-02-11 19:47:00,
2013-02-11 14:52:00,41.2,40.5,29.84,West,281,0.0,3.0,97,0.02,,,0.12,meteohub,2013-02-11 19:52:00,
2013-02-11 14:57:00,41.2,40.6,29.84,WNW,293,1.0,1.0,98,0.02,,,0.12,meteohub,2013-02-11 19:57:00,
2013-02-11 15:02:00,41.2,40.6,29.83,West,275,0.0,2.0,98,0.03,,,0.13,meteohub,2013-02-11 20:02:00,
2013-02-11 15:07:00,41.4,40.8,29.83,West,274,1.0,2.0,98,0.03,,,0.13,meteohub,2013-02-11 20:07:00,
2013-02-11 15:12:00,41.4,40.8,29.82,West,268,0.0,2.0,98,0.02,,,0.13,meteohub,2013-02-11 20:12:00,
2013-02-11 15:17:00,41.4,40.8,29.82,West,263,0.0,2.0,98,0.02,,,0.13,meteohub,2013-02-11 20:17:00,
2013-02-11 15:22:00,41.4,40.6,29.83,SW,226,0.0,2.0,97,0.02,,,0.13,meteohub,2013-02-11 20:22:00,
2013-02-11 15:27:00,41.4,40.8,29.82,SW,236,0.0,2.0,98,0.02,,,0.13,meteohub,2013-02-11 20:27:00,
2013-02-11 15:32:00,41.4,40.8,29.81,West,278,0.0,2.0,98,0.01,,,0.13,meteohub,2013-02-11 20:32:00,
2013-02-11 15:37:00,41.4,40.8,29.80,West,278,0.0,1.0,98,0.01,,,0.13,meteohub,2013-02-11 20:37:00,
2013-02-11 15:42:00,41.4,40.8,29.80,West,278,0.0,1.0,98,0.02,,,0.14,meteohub,2013-02-11 20:42:00,
2013-02-11 15:47:00,41.4,40.8,29.79,West,278,0.0,1.0,98,0.02,,,0.14,meteohub,2013-02-11 20:47:00,
2013-02-11 15:52:00,41.5,41.0,29.79,West,278,0.0,1.0,98,0.02,,,0.14,meteohub,2013-02-11 20:52:00,
2013-02-11 15:57:00,41.5,41.0,29.78,West,280,0.0,1.0,98,0.02,,,0.14,meteohub,2013-02-11 20:57:00,
2013-02-11 16:02:00,41.5,41.0,29.78,West,280,0.0,1.0,98,0.01,,,0.14,meteohub,2013-02-11 21:02:00,
2013-02-11 16:07:00,41.5,41.0,29.78,West,280,0.0,1.0,98,0.01,,,0.14,meteohub,2013-02-11 21:07:00,
2013-02-11 16:12:00,41.5,41.0,29.78,West,279,0.0,1.0,98,0.01,,,0.14,meteohub,2013-02-11 21:12:00,
2013-02-11 16:17:00,41.4,40.8,29.77,West,280,0.0,1.0,98,0.01,,,0.14,meteohub,2013-02-11 21:17:00,
2013-02-11 16:22:00,41.4,40.8,29.77,West,279,0.0,1.0,98,0.01,,,0.14,meteohub,2013-02-11 21:22:00,
2013-02-11 16:27:00,41.4,40.8,29.77,West,278,0.0,1.0,98,0.01,,,0.14,meteohub,2013-02-11 21:27:00,
2013-02-11 16:32:00,41.5,41.0,29.77,West,281,0.0,2.0,98,0.01,,,0.14,meteohub,2013-02-11 21:32:00,
2013-02-11 16:37:00,41.5,41.0,29.77,West,281,0.0,2.0,98,0.01,,,0.14,meteohub,2013-02-11 21:37:00,
2013-02-11 16:42:00,41.5,41.0,29.77,West,281,0.0,2.0,98,0.01,,,0.15,meteohub,2013-02-11 21:42:00,
2013-02-11 16:47:00,41.4,40.8,29.76,West,281,0.0,1.0,98,0.01,,,0.15,meteohub,2013-02-11 21:47:00,
2013-02-11 16:52:00,41.4,40.8,29.76,West,281,0.0,1.0,98,0.01,,,0.15,meteohub,2013-02-11 21:52:00,
2013-02-11 16:57:00,41.4,40.8,29.76,West,278,0.0,0.0,98,0.01,,,0.15,meteohub,2013-02-11 21:57:00,
2013-02-11 17:02:00,41.4,40.8,29.75,West,272,0.0,0.0,98,0.01,,,0.15,meteohub,2013-02-11 22:02:00,
2013-02-11 17:07:00,41.4,40.8,29.75,West,273,0.0,0.0,98,0.01,,,0.15,meteohub,2013-02-11 22:07:00,
2013-02-11 17:12:00,41.4,40.8,29.75,West,273,0.0,0.0,98,0.01,,,0.15,meteohub,2013-02-11 22:12:00,
2013-02-11 17:17:00,41.4,40.8,29.75,South,191,0.0,0.0,98,0.01,,,0.15,meteohub,2013-02-11 22:17:00,
2013-02-11 17:22:00,41.5,41.0,29.75,South,191,0.0,0.0,98,0.01,,,0.15,meteohub,2013-02-11 22:22:00,
2013-02-11 17:27:00,41.5,41.0,29.75,South,191,0.0,0.0,98,0.01,,,0.15,meteohub,2013-02-11 22:27:00,
2013-02-11 17:32:00,41.7,41.2,29.75,WNW,287,1.0,0.0,98,0.01,,,0.15,meteohub,2013-02-11 22:32:00,
2013-02-11 17:37:00,41.7,41.2,29.74,WNW,287,0.0,1.0,98,0.00,,,0.15,meteohub,2013-02-11 22:37:00,
2013-02-11 17:42:00,41.7,41.2,29.74,WNW,287,0.0,1.0,98,0.00,,,0.15,meteohub,2013-02-11 22:42:00,
2013-02-11 17:47:00,41.7,41.2,29.74,WNW,287,0.0,1.0,98,0.00,,,0.15,meteohub,2013-02-11 22:47:00,
2013-02-11 17:52:00,41.7,41.2,29.74,WNW,287,0.0,0.0,98,0.01,,,0.16,meteohub,2013-02-11 22:52:00,
2013-02-11 17:57:00,41.7,41.2,29.74,WNW,287,0.0,0.0,98,0.01,,,0.16,meteohub,2013-02-11 22:57:00,
2013-02-11 18:02:00,41.9,41.4,29.74,WNW,287,0.0,1.0,98,0.01,,,0.16,meteohub,2013-02-11 23:02:00,
2013-02-11 18:07:00,42.1,41.5,29.74,WNW,287,0.0,1.0,98,0.01,,,0.16,meteohub,2013-02-11 23:07:00,
2013-02-11 18:12:00,41.9,41.4,29.74,WNW,287,0.0,1.0,98,0.01,,,0.16,meteohub,2013-02-11 23:12:00,
2013-02-11 18:17:00,41.9,41.4,29.74,WNW,287,0.0,1.0,98,0.01,,,0.16,meteohub,2013-02-11 23:17:00,
2013-02-11 18:22:00,41.7,41.2,29.73,WNW,287,0.0,1.0,98,0.01,,,0.16,meteohub,2013-02-11 23:22:00,
2013-02-11 18:27:00,41.5,41.0,29.73,WNW,287,0.0,1.0,98,0.01,,,0.16,meteohub,2013-02-11 23:27:00,
2013-02-11 18:32:00,41.4,40.8,29.73,WNW,287,0.0,1.0,98,0.01,,,0.16,meteohub,2013-02-11 23:32:00,
2013-02-11 18:37:00,41.4,40.8,29.73,WNW,287,0.0,1.0,98,0.01,,,0.16,meteohub,2013-02-11 23:37:00,
2013-02-11 18:42:00,41.2,40.6,29.72,WNW,287,0.0,0.0,98,0.01,,,0.16,meteohub,2013-02-11 23:42:00,
2013-02-11 18:47:00,41.2,40.6,29.73,WNW,287,0.0,0.0,98,0.01,,,0.16,meteohub,2013-02-11 23:47:00,
2013-02-11 18:52:00,41.2,40.6,29.72,WNW,287,0.0,0.0,98,0.00,,,0.16,meteohub,2013-02-11 23:52:00,
2013-02-11 18:57:00,41.2,40.6,29.72,WNW,287,0.0,0.0,98,0.00,,,0.16,meteohub,2013-02-11 23:57:00,
2013-02-11 19:02:00,41.2,40.6,29.72,WNW,287,0.0,0.0,98,0.00,,,0.16,meteohub,2013-02-12 00:02:00,
2013-02-11 19:07:00,41.4,40.8,29.72,WNW,287,0.0,1.0,98,0.00,,,0.16,meteohub,2013-02-12 00:07:00,
2013-02-11 19:12:00,41.2,40.6,29.72,WNW,287,0.0,1.0,98,0.00,,,0.16,meteohub,2013-02-12 00:12:00,
2013-02-11 19:17:00,41.4,40.8,29.72,WNW,288,0.0,1.0,98,0.00,,,0.16,meteohub,2013-02-12 00:17:00,
2013-02-11 19:22:00,41.2,40.6,29.72,WNW,288,0.0,1.0,98,0.00,,,0.16,meteohub,2013-02-12 00:22:00,
2013-02-11 19:27:00,41.0,40.5,29.72,WNW,288,0.0,1.0,98,0.00,,,0.16,meteohub,2013-02-12 00:27:00,
2013-02-11 19:32:00,40.8,40.3,29.72,WNW,287,0.0,0.0,98,0.00,,,0.16,meteohub,2013-02-12 00:32:00,
2013-02-11 19:37:00,40.5,39.9,29.71,WNW,287,0.0,0.0,98,0.00,,,0.16,meteohub,2013-02-12 00:37:00,
2013-02-11 19:42:00,40.5,39.9,29.71,WNW,288,0.0,0.0,98,0.00,,,0.16,meteohub,2013-02-12 00:42:00,
2013-02-11 19:47:00,40.3,39.7,29.71,WNW,287,0.0,0.0,98,0.00,,,0.16,meteohub,2013-02-12 00:47:00,
2013-02-11 19:52:00,40.1,39.6,29.71,WNW,287,0.0,0.0,98,0.00,,,0.16,meteohub,2013-02-12 00:52:00,
2013-02-11 19:57:00,39.9,39.4,29.71,WNW,287,0.0,0.0,98,0.00,,,0.16,meteohub,2013-02-12 00:57:00,
2013-02-11 20:02:00,39.7,39.2,29.71,WNW,287,0.0,0.0,98,0.00,,,0.16,meteohub,2013-02-12 01:02:00,
2013-02-11 20:07:00,39.9,39.4,29.72,WNW,287,0.0,1.0,98,0.00,,,0.16,meteohub,2013-02-12 01:07:00,
2013-02-11 20:12:00,39.9,39.4,29.71,WNW,287,0.0,1.0,98,0.00,,,0.16,meteohub,2013-02-12 01:12:00,
2013-02-11 20:17:00,39.9,39.4,29.71,WNW,287,0.0,1.0,98,0.00,,,0.16,meteohub,2013-02-12 01:17:00,
2013-02-11 20:22:00,39.9,39.4,29.71,WNW,287,0.0,0.0,98,0.00,,,0.16,meteohub,2013-02-12 01:22:00,
2013-02-11 20:27:00,39.9,39.4,29.71,WNW,287,0.0,0.0,98,0.00,,,0.16,meteohub,2013-02-12 01:27:00,
2013-02-11 20:32:00,39.9,39.4,29.71,WNW,287,0.0,0.0,98,0.00,,,0.16,meteohub,2013-02-12 01:32:00,
2013-02-11 20:37:00,39.9,39.4,29.71,WNW,287,0.0,0.0,98,0.00,,,0.16,meteohub,2013-02-12 01:37:00,
2013-02-11 20:42:00,39.9,39.4,29.72,WNW,287,0.0,0.0,98,0.00,,,0.16,meteohub,2013-02-12 01:42:00,
2013-02-11 20:47:00,39.7,39.2,29.71,WNW,287,0.0,0.0,98,0.00,,,0.16,meteohub,2013-02-12 01:47:00,
2013-02-11 20:52:00,39.7,39.2,29.71,WNW,287,0.0,0.0,98,0.00,,,0.16,meteohub,2013-02-12 01:52:00,
2013-02-11 20:57:00,39.7,39.2,29.71,WNW,287,0.0,0.0,98,0.00,,,0.16,meteohub,2013-02-12 01:57:00,
2013-02-11 21:02:00,39.9,39.4,29.72,WNW,287,0.0,0.0,98,0.00,,,0.16,meteohub,2013-02-12 02:02:00,
2013-02-11 21:07:00,40.3,40.1,29.71,WNW,288,0.0,0.0,99,0.00,,,0.16,meteohub,2013-02-12 02:07:00,
2013-02-11 21:12:00,40.5,40.3,29.71,WNW,287,0.0,0.0,99,0.00,,,0.16,meteohub,2013-02-12 02:12:00,
2013-02-11 21:17:00,40.6,40.5,29.72,WNW,288,0.0,0.0,99,0.00,,,0.16,meteohub,2013-02-12 02:17:00,
2013-02-11 21:22:00,40.8,40.6,29.72,WNW,287,0.0,0.0,99,0.00,,,0.16,meteohub,2013-02-12 02:22:00,
2013-02-11 21:27:00,40.8,40.6,29.72,WNW,287,0.0,0.0,99,0.00,,,0.16,meteohub,2013-02-12 02:27:00,
2013-02-11 21:32:00,41.2,41.0,29.72,WNW,287,0.0,0.0,99,0.00,,,0.16,meteohub,2013-02-12 02:32:00,
2013-02-11 21:37:00,41.0,40.8,29.74,NW,324,2.0,0.0,99,0.00,,,0.16,meteohub,2013-02-12 02:37:00,
2013-02-11 21:42:00,40.8,40.3,29.74,West,274,1.0,3.0,98,0.00,,,0.16,meteohub,2013-02-12 02:42:00,
2013-02-11 21:47:00,41.5,41.4,29.74,NW,312,1.0,3.0,99,0.00,,,0.16,meteohub,2013-02-12 02:47:00,
2013-02-11 21:52:00,41.7,41.5,29.75,NNW,332,1.0,4.0,99,0.00,,,0.16,meteohub,2013-02-12 02:52:00,
2013-02-11 21:57:00,41.9,41.7,29.75,NNW,328,1.0,4.0,99,0.00,,,0.16,meteohub,2013-02-12 02:57:00,
2013-02-11 22:02:00,42.1,41.9,29.75,WNW,300,3.0,4.0,99,0.00,,,0.16,meteohub,2013-02-12 03:02:00,
2013-02-11 22:07:00,42.4,42.3,29.75,West,278,1.0,3.0,99,0.00,,,0.16,meteohub,2013-02-12 03:07:00,
2013-02-11 22:12:00,43.2,43.0,29.75,WNW,283,2.0,5.0,99,0.00,,,0.16,meteohub,2013-02-12 03:12:00,
2013-02-11 22:17:00,43.3,43.2,29.75,WNW,292,2.0,5.0,99,0.00,,,0.16,meteohub,2013-02-12 03:17:00,
2013-02-11 22:22:00,43.7,43.5,29.75,West,281,6.0,6.0,99,0.00,,,0.16,meteohub,2013-02-12 03:22:00,
2013-02-11 22:27:00,44.1,43.9,29.76,WNW,288,3.0,9.0,99,0.00,,,0.16,meteohub,2013-02-12 03:27:00,
2013-02-11 22:32:00,44.2,44.1,29.76,NW,304,4.0,9.0,99,0.00,,,0.16,meteohub,2013-02-12 03:32:00,
2013-02-11 22:37:00,44.4,44.2,29.76,NW,312,5.0,9.0,99,0.00,,,0.16,meteohub,2013-02-12 03:37:00,
2013-02-11 22:42:00,44.4,44.2,29.77,NW,304,2.0,8.0,99,0.00,,,0.16,meteohub,2013-02-12 03:42:00,
2013-02-11 22:47:00,44.2,44.1,29.77,NW,309,2.0,7.0,99,0.00,,,0.16,meteohub,2013-02-12 03:47:00,
2013-02-11 22:52:00,44.2,44.1,29.78,WNW,298,4.0,7.0,99,0.00,,,0.16,meteohub,2013-02-12 03:52:00,
2013-02-11 22:57:00,44.1,43.9,29.77,NW,304,2.0,5.0,99,0.00,,,0.16,meteohub,2013-02-12 03:57:00,
2013-02-11 23:02:00,44.1,43.5,29.77,WNW,285,1.0,5.0,98,0.00,,,0.16,meteohub,2013-02-12 04:02:00,
2013-02-11 23:07:00,43.9,43.3,29.77,WNW,290,1.0,5.0,98,0.00,,,0.16,meteohub,2013-02-12 04:07:00,
2013-02-11 23:12:00,43.5,43.0,29.77,WNW,295,1.0,4.0,98,0.00,,,0.16,meteohub,2013-02-12 04:12:00,
2013-02-11 23:17:00,43.3,42.8,29.78,WNW,302,0.0,4.0,98,0.00,,,0.16,meteohub,2013-02-12 04:17:00,
2013-02-11 23:22:00,43.2,42.6,29.78,NW,309,1.0,4.0,98,0.00,,,0.16,meteohub,2013-02-12 04:22:00,
2013-02-11 23:27:00,43.0,42.4,29.78,WNW,285,0.0,2.0,98,0.00,,,0.16,meteohub,2013-02-12 04:27:00,
2013-02-11 23:32:00,42.8,42.3,29.78,West,281,0.0,2.0,98,0.00,,,0.16,meteohub,2013-02-12 04:32:00,
2013-02-11 23:37:00,42.6,42.1,29.78,West,276,1.0,2.0,98,0.00,,,0.16,meteohub,2013-02-12 04:37:00,
2013-02-11 23:42:00,42.4,41.9,29.78,West,266,1.0,1.0,98,0.00,,,0.16,meteohub,2013-02-12 04:42:00,
2013-02-11 23:48:00,42.3,41.7,29.78,WNW,284,1.0,2.0,98,0.00,,,0.16,meteohub,2013-02-12 04:48:00,
2013-02-11 23:53:00,41.9,41.4,29.79,West,274,2.0,2.0,98,0.00,,,0.16,meteohub,2013-02-12 04:53:00,
2013-02-11 23:58:00,41.7,41.2,29.79,WNW,290,1.0,3.0,98,0.00,,,0.16,meteohub,2013-02-12 04:58:00,